sensor_id;sensor_type;location;lat;lon;timestamp;temperature;humidity
16491;DHT22;8356;51.214;3.270;2023-02-28T00:00:23;154.50;2252.80
16491;DHT22;8356;51.214;3.270;2023-02-28T00:02:50;154.40;2252.80
16491;DHT22;8356;51.214;3.270;2023-02-28T00:05:19;154.40;2252.80
16491;DHT22;8356;51.214;3.270;2023-02-28T00:07:45;154.50;2252.80
16491;DHT22;8356;51.214;3.270;2023-02-28T00:10:13;179.20;2252.80
16491;DHT22;8356;51.214;3.270;2023-02-28T00:12:39;179.20;2252.80
16491;DHT22;8356;51.214;3.270;2023-02-28T00:15:10;179.40;2252.80
16491;DHT22;8356;51.214;3.270;2023-02-28T00:17:36;154.40;2252.80
16491;DHT22;8356;51.214;3.270;2023-02-28T00:20:04;154.40;2252.80
16491;DHT22;8356;51.214;3.270;2023-02-28T00:22:33;154.30;2252.80
16491;DHT22;8356;51.214;3.270;2023-02-28T00:24:59;154.50;2252.80
16491;DHT22;8356;51.214;3.270;2023-02-28T00:27:25;154.50;2252.80
16491;DHT22;8356;51.214;3.270;2023-02-28T00:29:51;154.40;2252.80
16491;DHT22;8356;51.214;3.270;2023-02-28T00:32:16;154.30;2252.80
16491;DHT22;8356;51.214;3.270;2023-02-28T00:34:44;154.10;2252.80
16491;DHT22;8356;51.214;3.270;2023-02-28T00:37:10;153.80;2252.80
16491;DHT22;8356;51.214;3.270;2023-02-28T00:39:37;153.80;2252.80
16491;DHT22;8356;51.214;3.270;2023-02-28T00:42:04;153.80;2252.80
16491;DHT22;8356;51.214;3.270;2023-02-28T00:44:30;153.90;2252.80
16491;DHT22;8356;51.214;3.270;2023-02-28T00:46:57;154.20;2252.80
16491;DHT22;8356;51.214;3.270;2023-02-28T00:49:23;154.20;2252.80
16491;DHT22;8356;51.214;3.270;2023-02-28T00:51:49;154.10;2252.80
16491;DHT22;8356;51.214;3.270;2023-02-28T00:54:15;154.00;2252.80
16491;DHT22;8356;51.214;3.270;2023-02-28T00:56:41;153.90;2252.80
16491;DHT22;8356;51.214;3.270;2023-02-28T00:59:06;154.00;2252.80
16491;DHT22;8356;51.214;3.270;2023-02-28T01:01:32;153.90;2252.80
16491;DHT22;8356;51.214;3.270;2023-02-28T01:03:58;153.90;2252.80
16491;DHT22;8356;51.214;3.270;2023-02-28T01:06:24;153.80;2252.80
16491;DHT22;8356;51.214;3.270;2023-02-28T01:08:50;153.80;2252.80
16491;DHT22;8356;51.214;3.270;2023-02-28T01:11:19;154.00;2252.80
16491;DHT22;8356;51.214;3.270;2023-02-28T01:13:46;154.10;2252.80
16491;DHT22;8356;51.214;3.270;2023-02-28T01:16:12;154.10;2252.80
16491;DHT22;8356;51.214;3.270;2023-02-28T01:18:38;154.10;2252.80
16491;DHT22;8356;51.214;3.270;2023-02-28T01:21:10;154.10;2252.80
16491;DHT22;8356;51.214;3.270;2023-02-28T01:23:36;154.00;2252.80
16491;DHT22;8356;51.214;3.270;2023-02-28T01:26:10;154.10;2252.80
16491;DHT22;8356;51.214;3.270;2023-02-28T01:28:37;154.20;2252.80
16491;DHT22;8356;51.214;3.270;2023-02-28T01:31:03;154.10;2252.80
16491;DHT22;8356;51.214;3.270;2023-02-28T01:33:29;153.90;2252.80
16491;DHT22;8356;51.214;3.270;2023-02-28T01:36:06;153.70;2252.80
16491;DHT22;8356;51.214;3.270;2023-02-28T01:38:33;153.80;2252.80
16491;DHT22;8356;51.214;3.270;2023-02-28T01:40:59;153.80;2252.80
16491;DHT22;8356;51.214;3.270;2023-02-28T01:43:27;153.80;2252.80
16491;DHT22;8356;51.214;3.270;2023-02-28T01:45:55;153.80;2252.80
16491;DHT22;8356;51.214;3.270;2023-02-28T01:48:24;154.00;2252.80
16491;DHT22;8356;51.214;3.270;2023-02-28T01:50:52;154.10;2252.80
16491;DHT22;8356;51.214;3.270;2023-02-28T01:53:24;154.00;2252.80
16491;DHT22;8356;51.214;3.270;2023-02-28T01:55:53;153.70;2252.80
16491;DHT22;8356;51.214;3.270;2023-02-28T01:58:19;153.60;2252.80
16491;DHT22;8356;51.214;3.270;2023-02-28T02:00:45;153.80;2252.80
16491;DHT22;8356;51.214;3.270;2023-02-28T02:03:16;153.80;2252.80
16491;DHT22;8356;51.214;3.270;2023-02-28T02:05:47;153.90;2252.80
16491;DHT22;8356;51.214;3.270;2023-02-28T02:08:19;153.90;2252.80
16491;DHT22;8356;51.214;3.270;2023-02-28T02:10:50;153.90;2252.80
16491;DHT22;8356;51.214;3.270;2023-02-28T02:22:35;154.10;2252.80
16491;DHT22;8356;51.214;3.270;2023-02-28T02:36:35;154.10;2252.80
16491;DHT22;8356;51.214;3.270;2023-02-28T02:39:19;154.30;2252.80
16491;DHT22;8356;51.214;3.270;2023-02-28T02:41:52;154.30;2252.80
16491;DHT22;8356;51.214;3.270;2023-02-28T02:44:26;154.20;2252.80
16491;DHT22;8356;51.214;3.270;2023-02-28T02:47:03;154.10;2252.80
16491;DHT22;8356;51.214;3.270;2023-02-28T02:49:35;154.20;2252.80
16491;DHT22;8356;51.214;3.270;2023-02-28T02:52:07;154.20;2252.80
16491;DHT22;8356;51.214;3.270;2023-02-28T02:54:40;154.30;2252.80
16491;DHT22;8356;51.214;3.270;2023-02-28T02:57:25;154.10;2252.80
16491;DHT22;8356;51.214;3.270;2023-02-28T02:59:54;154.10;2252.80
16491;DHT22;8356;51.214;3.270;2023-02-28T03:02:21;154.00;2252.80
16491;DHT22;8356;51.214;3.270;2023-02-28T03:04:58;153.80;2252.80
16491;DHT22;8356;51.214;3.270;2023-02-28T03:07:27;154.10;2252.80
16491;DHT22;8356;51.214;3.270;2023-02-28T03:09:55;154.20;2252.80
16491;DHT22;8356;51.214;3.270;2023-02-28T03:12:25;154.10;2252.80
16491;DHT22;8356;51.214;3.270;2023-02-28T03:15:11;154.30;2252.80
16491;DHT22;8356;51.214;3.270;2023-02-28T03:18:00;154.30;2252.80
16491;DHT22;8356;51.214;3.270;2023-02-28T03:21:01;154.10;2252.80
16491;DHT22;8356;51.214;3.270;2023-02-28T03:23:28;154.00;2252.80
16491;DHT22;8356;51.214;3.270;2023-02-28T03:26:38;154.10;2252.80
16491;DHT22;8356;51.214;3.270;2023-02-28T03:31:39;154.10;2252.80
16491;DHT22;8356;51.214;3.270;2023-02-28T03:36:48;154.20;2252.80
16491;DHT22;8356;51.214;3.270;2023-02-28T03:39:23;154.20;2252.80
16491;DHT22;8356;51.214;3.270;2023-02-28T03:44:24;154.50;2252.80
16491;DHT22;8356;51.214;3.270;2023-02-28T03:47:00;154.50;2252.80
16491;DHT22;8356;51.214;3.270;2023-02-28T03:52:55;154.50;2252.80
16491;DHT22;8356;51.214;3.270;2023-02-28T03:55:28;154.50;2252.80
16491;DHT22;8356;51.214;3.270;2023-02-28T03:58:15;154.40;2252.80
16491;DHT22;8356;51.214;3.270;2023-02-28T04:00:49;154.40;2252.80
16491;DHT22;8356;51.214;3.270;2023-02-28T04:03:16;154.40;2252.80
16491;DHT22;8356;51.214;3.270;2023-02-28T04:05:53;154.40;2252.80
16491;DHT22;8356;51.214;3.270;2023-02-28T04:08:20;154.50;2252.80
16491;DHT22;8356;51.214;3.270;2023-02-28T04:10:50;154.30;2252.80
16491;DHT22;8356;51.214;3.270;2023-02-28T04:13:17;154.50;2252.80
16491;DHT22;8356;51.214;3.270;2023-02-28T04:15:43;154.50;2252.80
16491;DHT22;8356;51.214;3.270;2023-02-28T04:18:08;154.50;2252.80
16491;DHT22;8356;51.214;3.270;2023-02-28T04:20:34;154.40;2252.80
16491;DHT22;8356;51.214;3.270;2023-02-28T04:23:00;154.40;2252.80
16491;DHT22;8356;51.214;3.270;2023-02-28T04:25:25;154.40;2252.80
16491;DHT22;8356;51.214;3.270;2023-02-28T04:27:51;154.40;2252.80
16491;DHT22;8356;51.214;3.270;2023-02-28T04:30:16;154.30;2252.80
16491;DHT22;8356;51.214;3.270;2023-02-28T04:32:42;154.20;2252.80
16491;DHT22;8356;51.214;3.270;2023-02-28T04:35:08;154.20;2252.80
16491;DHT22;8356;51.214;3.270;2023-02-28T04:37:34;154.10;2252.80
16491;DHT22;8356;51.214;3.270;2023-02-28T04:40:02;154.00;2252.80
16491;DHT22;8356;51.214;3.270;2023-02-28T04:42:28;154.00;2252.80
16491;DHT22;8356;51.214;3.270;2023-02-28T04:45:03;154.10;2252.80
16491;DHT22;8356;51.214;3.270;2023-02-28T04:47:29;154.20;2252.80
16491;DHT22;8356;51.214;3.270;2023-02-28T04:49:55;154.20;2252.80
16491;DHT22;8356;51.214;3.270;2023-02-28T04:52:20;154.40;2252.80
16491;DHT22;8356;51.214;3.270;2023-02-28T04:54:46;154.40;2252.80
16491;DHT22;8356;51.214;3.270;2023-02-28T04:57:12;154.50;2252.80
16491;DHT22;8356;51.214;3.270;2023-02-28T04:59:37;154.40;2252.80
16491;DHT22;8356;51.214;3.270;2023-02-28T05:02:03;154.40;2252.80
16491;DHT22;8356;51.214;3.270;2023-02-28T05:04:33;154.40;2252.80
16491;DHT22;8356;51.214;3.270;2023-02-28T05:07:00;154.30;2252.80
16491;DHT22;8356;51.214;3.270;2023-02-28T05:09:26;154.40;2252.80
16491;DHT22;8356;51.214;3.270;2023-02-28T05:11:53;179.20;2252.80
16491;DHT22;8356;51.214;3.270;2023-02-28T05:14:19;179.30;2252.80
16491;DHT22;8356;51.214;3.270;2023-02-28T05:16:44;179.30;2252.80
16491;DHT22;8356;51.214;3.270;2023-02-28T05:19:10;179.20;2252.80
16491;DHT22;8356;51.214;3.270;2023-02-28T05:21:41;179.20;2252.80
16491;DHT22;8356;51.214;3.270;2023-02-28T05:24:13;179.20;2252.80
16491;DHT22;8356;51.214;3.270;2023-02-28T05:26:41;179.20;2252.80
16491;DHT22;8356;51.214;3.270;2023-02-28T05:29:07;179.40;2252.80
16491;DHT22;8356;51.214;3.270;2023-02-28T05:31:33;179.50;2252.80
16491;DHT22;8356;51.214;3.270;2023-02-28T05:33:58;179.50;2252.80
16491;DHT22;8356;51.214;3.270;2023-02-28T05:36:24;179.40;2252.80
16491;DHT22;8356;51.214;3.270;2023-02-28T05:38:51;179.30;2252.80
16491;DHT22;8356;51.214;3.270;2023-02-28T05:41:18;179.30;2252.80
16491;DHT22;8356;51.214;3.270;2023-02-28T05:43:44;179.40;2252.80
16491;DHT22;8356;51.214;3.270;2023-02-28T05:46:11;179.40;2252.80
16491;DHT22;8356;51.214;3.270;2023-02-28T05:48:38;179.40;2252.80
16491;DHT22;8356;51.214;3.270;2023-02-28T05:51:05;179.50;2252.80
16491;DHT22;8356;51.214;3.270;2023-02-28T05:53:32;179.50;2252.80
16491;DHT22;8356;51.214;3.270;2023-02-28T05:55:58;179.50;2252.80
16491;DHT22;8356;51.214;3.270;2023-02-28T05:58:24;179.40;2252.80
16491;DHT22;8356;51.214;3.270;2023-02-28T06:00:56;179.40;2252.80
16491;DHT22;8356;51.214;3.270;2023-02-28T06:03:22;179.70;2252.80
16491;DHT22;8356;51.214;3.270;2023-02-28T06:05:48;179.60;2252.80
16491;DHT22;8356;51.214;3.270;2023-02-28T06:08:13;179.60;2252.80
16491;DHT22;8356;51.214;3.270;2023-02-28T06:10:39;179.50;2252.80
16491;DHT22;8356;51.214;3.270;2023-02-28T06:13:05;179.70;2252.80
16491;DHT22;8356;51.214;3.270;2023-02-28T06:15:31;179.60;2252.80
16491;DHT22;8356;51.214;3.270;2023-02-28T06:17:58;179.70;2252.80
16491;DHT22;8356;51.214;3.270;2023-02-28T06:20:25;179.70;2252.80
16491;DHT22;8356;51.214;3.270;2023-02-28T06:22:55;179.70;2252.80
16491;DHT22;8356;51.214;3.270;2023-02-28T06:25:21;179.70;2252.80
16491;DHT22;8356;51.214;3.270;2023-02-28T06:27:47;179.60;2252.80
16491;DHT22;8356;51.214;3.270;2023-02-28T06:30:13;179.60;2252.80
16491;DHT22;8356;51.214;3.270;2023-02-28T06:32:39;179.50;2252.80
16491;DHT22;8356;51.214;3.270;2023-02-28T06:35:05;179.30;2252.80
16491;DHT22;8356;51.214;3.270;2023-02-28T06:37:32;179.20;2252.80
16491;DHT22;8356;51.214;3.270;2023-02-28T06:39:58;154.50;2252.80
16491;DHT22;8356;51.214;3.270;2023-02-28T06:42:24;154.50;2252.80
16491;DHT22;8356;51.214;3.270;2023-02-28T06:44:55;154.40;2252.80
16491;DHT22;8356;51.214;3.270;2023-02-28T06:47:21;154.50;2252.80
16491;DHT22;8356;51.214;3.270;2023-02-28T06:49:47;154.50;2252.80
16491;DHT22;8356;51.214;3.270;2023-02-28T06:52:14;179.30;2252.80
16491;DHT22;8356;51.214;3.270;2023-02-28T06:54:39;179.20;2252.80
16491;DHT22;8356;51.214;3.270;2023-02-28T06:57:05;179.30;2252.80
16491;DHT22;8356;51.214;3.270;2023-02-28T06:59:31;179.20;2252.80
16491;DHT22;8356;51.214;3.270;2023-02-28T07:01:56;179.30;2252.80
16491;DHT22;8356;51.214;3.270;2023-02-28T07:04:22;179.60;2252.80
16491;DHT22;8356;51.214;3.270;2023-02-28T07:06:48;179.60;2252.80
16491;DHT22;8356;51.214;3.270;2023-02-28T07:09:14;179.50;2252.80
16491;DHT22;8356;51.214;3.270;2023-02-28T07:11:39;179.60;2252.80
16491;DHT22;8356;51.214;3.270;2023-02-28T07:14:06;179.40;2252.80
16491;DHT22;8356;51.214;3.270;2023-02-28T07:16:32;179.30;2252.80
16491;DHT22;8356;51.214;3.270;2023-02-28T07:18:58;179.30;2252.80
16491;DHT22;8356;51.214;3.270;2023-02-28T07:21:24;179.50;2252.80
16491;DHT22;8356;51.214;3.270;2023-02-28T07:23:50;179.40;2252.80
16491;DHT22;8356;51.214;3.270;2023-02-28T07:26:17;179.30;2252.80
16491;DHT22;8356;51.214;3.270;2023-02-28T07:28:45;179.40;2252.80
16491;DHT22;8356;51.214;3.270;2023-02-28T07:31:11;154.50;2252.80
16491;DHT22;8356;51.214;3.270;2023-02-28T07:33:39;154.10;2252.80
16491;DHT22;8356;51.214;3.270;2023-02-28T07:36:08;154.50;2252.80
16491;DHT22;8356;51.214;3.270;2023-02-28T07:38:37;179.30;2252.80
16491;DHT22;8356;51.214;3.270;2023-02-28T07:41:03;179.50;2252.80
16491;DHT22;8356;51.214;3.270;2023-02-28T07:43:30;179.50;2252.80
16491;DHT22;8356;51.214;3.270;2023-02-28T07:46:08;154.50;2252.80
16491;DHT22;8356;51.214;3.270;2023-02-28T07:48:34;179.20;2252.80
16491;DHT22;8356;51.214;3.270;2023-02-28T07:51:00;179.30;2252.80
16491;DHT22;8356;51.214;3.270;2023-02-28T07:53:26;179.40;2252.80
16491;DHT22;8356;51.214;3.270;2023-02-28T07:55:59;179.50;2252.80
16491;DHT22;8356;51.214;3.270;2023-02-28T07:58:27;179.60;2252.80
16491;DHT22;8356;51.214;3.270;2023-02-28T08:00:53;179.60;2252.80
16491;DHT22;8356;51.214;3.270;2023-02-28T08:03:20;179.60;2252.80
16491;DHT22;8356;51.214;3.270;2023-02-28T08:05:47;179.60;2252.80
16491;DHT22;8356;51.214;3.270;2023-02-28T08:08:13;179.30;2252.80
16491;DHT22;8356;51.214;3.270;2023-02-28T08:10:39;179.50;2252.80
16491;DHT22;8356;51.214;3.270;2023-02-28T08:13:05;179.50;2252.80
16491;DHT22;8356;51.214;3.270;2023-02-28T08:15:31;179.40;2252.80
16491;DHT22;8356;51.214;3.270;2023-02-28T08:17:56;179.40;2252.80
16491;DHT22;8356;51.214;3.270;2023-02-28T08:20:23;179.30;2252.80
16491;DHT22;8356;51.214;3.270;2023-02-28T08:22:50;179.30;2252.80
16491;DHT22;8356;51.214;3.270;2023-02-28T08:25:16;179.40;2252.80
16491;DHT22;8356;51.214;3.270;2023-02-28T08:27:41;179.50;2252.80
16491;DHT22;8356;51.214;3.270;2023-02-28T08:30:10;179.30;2252.80
16491;DHT22;8356;51.214;3.270;2023-02-28T08:32:36;179.30;2252.80
16491;DHT22;8356;51.214;3.270;2023-02-28T08:35:01;179.40;2252.80
16491;DHT22;8356;51.214;3.270;2023-02-28T08:37:28;179.20;2252.80
16491;DHT22;8356;51.214;3.270;2023-02-28T08:39:54;179.20;2252.80
16491;DHT22;8356;51.214;3.270;2023-02-28T08:42:19;179.20;2252.80
16491;DHT22;8356;51.214;3.270;2023-02-28T08:44:45;179.40;2252.80
16491;DHT22;8356;51.214;3.270;2023-02-28T08:47:11;179.60;2252.80
16491;DHT22;8356;51.214;3.270;2023-02-28T08:49:37;179.60;2252.80
16491;DHT22;8356;51.214;3.270;2023-02-28T08:52:03;179.60;2252.80
16491;DHT22;8356;51.214;3.270;2023-02-28T08:54:29;179.60;2252.80
16491;DHT22;8356;51.214;3.270;2023-02-28T08:56:56;179.50;2252.80
16491;DHT22;8356;51.214;3.270;2023-02-28T08:59:22;179.40;2252.80
16491;DHT22;8356;51.214;3.270;2023-02-28T09:01:48;179.40;2252.80
16491;DHT22;8356;51.214;3.270;2023-02-28T09:04:13;179.20;2252.80
16491;DHT22;8356;51.214;3.270;2023-02-28T09:06:39;179.30;2252.80
16491;DHT22;8356;51.214;3.270;2023-02-28T09:09:05;179.50;2252.80
16491;DHT22;8356;51.214;3.270;2023-02-28T09:11:34;179.60;2252.80
16491;DHT22;8356;51.214;3.270;2023-02-28T09:14:00;179.60;2252.80
16491;DHT22;8356;51.214;3.270;2023-02-28T09:16:29;179.60;2252.80
16491;DHT22;8356;51.214;3.270;2023-02-28T09:18:55;179.50;2252.80
16491;DHT22;8356;51.214;3.270;2023-02-28T09:21:20;179.40;2252.80
16491;DHT22;8356;51.214;3.270;2023-02-28T09:23:48;154.30;2252.80
16491;DHT22;8356;51.214;3.270;2023-02-28T09:26:21;154.00;2252.80
16491;DHT22;8356;51.214;3.270;2023-02-28T09:28:48;154.10;2252.80
16491;DHT22;8356;51.214;3.270;2023-02-28T09:31:16;154.00;2252.80
16491;DHT22;8356;51.214;3.270;2023-02-28T09:33:46;153.60;2252.80
16491;DHT22;8356;51.214;3.270;2023-02-28T09:36:12;153.70;2252.80
16491;DHT22;8356;51.214;3.270;2023-02-28T09:38:38;153.60;2252.80
16491;DHT22;8356;51.214;3.270;2023-02-28T09:41:11;128.80;2252.80
16491;DHT22;8356;51.214;3.270;2023-02-28T09:43:43;128.70;2252.80
16491;DHT22;8356;51.214;3.270;2023-02-28T09:48:54;128.80;2252.80
16491;DHT22;8356;51.214;3.270;2023-02-28T09:53:53;154.00;2252.80
16491;DHT22;8356;51.214;3.270;2023-02-28T09:56:23;154.20;2252.80
16491;DHT22;8356;51.214;3.270;2023-02-28T10:01:45;154.20;2252.80
16491;DHT22;8356;51.214;3.270;2023-02-28T10:04:41;154.30;2252.80
16491;DHT22;8356;51.214;3.270;2023-02-28T10:07:21;154.10;2252.80
16491;DHT22;8356;51.214;3.270;2023-02-28T10:09:52;154.00;2252.80
16491;DHT22;8356;51.214;3.270;2023-02-28T10:12:20;154.10;2252.80
16491;DHT22;8356;51.214;3.270;2023-02-28T10:14:49;154.00;2252.80
16491;DHT22;8356;51.214;3.270;2023-02-28T10:17:23;154.10;2252.80
16491;DHT22;8356;51.214;3.270;2023-02-28T10:19:56;154.20;2252.80
16491;DHT22;8356;51.214;3.270;2023-02-28T10:24:56;154.00;2252.80
16491;DHT22;8356;51.214;3.270;2023-02-28T10:27:31;154.10;2252.80
16491;DHT22;8356;51.214;3.270;2023-02-28T10:29:59;154.00;2252.80
16491;DHT22;8356;51.214;3.270;2023-02-28T10:32:36;153.80;2252.80
16491;DHT22;8356;51.214;3.270;2023-02-28T10:37:38;153.90;2252.80
16491;DHT22;8356;51.214;3.270;2023-02-28T10:40:05;154.10;2252.80
16491;DHT22;8356;51.214;3.270;2023-02-28T10:42:32;154.00;2252.80
16491;DHT22;8356;51.214;3.270;2023-02-28T10:50:43;154.30;2252.80
16491;DHT22;8356;51.214;3.270;2023-02-28T10:53:17;154.50;2252.80
16491;DHT22;8356;51.214;3.270;2023-02-28T10:56:01;154.30;2252.80
16491;DHT22;8356;51.214;3.270;2023-02-28T10:59:22;154.30;2252.80
16491;DHT22;8356;51.214;3.270;2023-02-28T11:01:22;154.50;2252.80
16491;DHT22;8356;51.214;3.270;2023-02-28T11:03:48;179.30;2252.80
16491;DHT22;8356;51.214;3.270;2023-02-28T11:06:26;154.20;2252.80
16491;DHT22;8356;51.214;3.270;2023-02-28T11:08:58;179.50;2252.80
16491;DHT22;8356;51.214;3.270;2023-02-28T11:11:27;179.30;2252.80
16491;DHT22;8356;51.214;3.270;2023-02-28T11:13:57;179.40;2252.80
16491;DHT22;8356;51.214;3.270;2023-02-28T11:16:33;179.50;2252.80
16491;DHT22;8356;51.214;3.270;2023-02-28T11:19:00;179.60;2252.80
16491;DHT22;8356;51.214;3.270;2023-02-28T11:21:35;179.50;2252.80
16491;DHT22;8356;51.214;3.270;2023-02-28T11:24:23;179.60;2252.80
16491;DHT22;8356;51.214;3.270;2023-02-28T11:26:51;179.60;2252.80
16491;DHT22;8356;51.214;3.270;2023-02-28T11:29:21;179.50;2252.80
16491;DHT22;8356;51.214;3.270;2023-02-28T11:34:35;179.30;2252.80
16491;DHT22;8356;51.214;3.270;2023-02-28T11:37:01;179.30;2252.80
16491;DHT22;8356;51.214;3.270;2023-02-28T11:39:31;179.50;2252.80
16491;DHT22;8356;51.214;3.270;2023-02-28T11:47:47;179.40;2252.80
16491;DHT22;8356;51.214;3.270;2023-02-28T11:50:16;179.40;2252.80
16491;DHT22;8356;51.214;3.270;2023-02-28T11:53:17;179.30;2252.80
16491;DHT22;8356;51.214;3.270;2023-02-28T11:55:44;179.50;2252.80
16491;DHT22;8356;51.214;3.270;2023-02-28T12:11:53;204.80;2252.80
16491;DHT22;8356;51.214;3.270;2023-02-28T12:14:46;205.00;2252.80
16491;DHT22;8356;51.214;3.270;2023-02-28T12:17:46;205.40;2252.80
16491;DHT22;8356;51.214;3.270;2023-02-28T12:23:02;230.80;2252.80
16491;DHT22;8356;51.214;3.270;2023-02-28T12:28:35;231.10;2252.80
16491;DHT22;8356;51.214;3.270;2023-02-28T12:31:06;231.00;2252.80
16491;DHT22;8356;51.214;3.270;2023-02-28T12:33:42;230.90;2252.80
16491;DHT22;8356;51.214;3.270;2023-02-28T12:36:11;230.90;2252.80
16491;DHT22;8356;51.214;3.270;2023-02-28T12:39:02;230.90;2252.80
16491;DHT22;8356;51.214;3.270;2023-02-28T12:41:41;230.90;2252.80
16491;DHT22;8356;51.214;3.270;2023-02-28T12:44:17;230.70;2252.80
16491;DHT22;8356;51.214;3.270;2023-02-28T12:46:47;230.50;2252.80
16491;DHT22;8356;51.214;3.270;2023-02-28T12:51:52;231.10;2252.80
16491;DHT22;8356;51.214;3.270;2023-02-28T12:57:16;230.80;2252.80
16491;DHT22;8356;51.214;3.270;2023-02-28T12:59:53;230.60;2252.80
16491;DHT22;8356;51.214;3.270;2023-02-28T13:10:58;230.80;2252.80
16491;DHT22;8356;51.214;3.270;2023-02-28T13:13:26;230.70;2252.80
16491;DHT22;8356;51.214;3.270;2023-02-28T13:16:04;230.60;2252.80
16491;DHT22;8356;51.214;3.270;2023-02-28T13:18:34;230.60;2252.80
16491;DHT22;8356;51.214;3.270;2023-02-28T13:21:03;230.40;2252.80
16491;DHT22;8356;51.214;3.270;2023-02-28T13:24:02;230.50;2252.80
16491;DHT22;8356;51.214;3.270;2023-02-28T13:29:02;230.60;2252.80
16491;DHT22;8356;51.214;3.270;2023-02-28T13:31:29;230.70;2252.80
16491;DHT22;8356;51.214;3.270;2023-02-28T13:36:31;230.70;2252.80
16491;DHT22;8356;51.214;3.270;2023-02-28T13:39:02;230.60;2252.80
16491;DHT22;8356;51.214;3.270;2023-02-28T13:44:21;230.60;2252.80
16491;DHT22;8356;51.214;3.270;2023-02-28T13:52:16;230.80;2252.80
16491;DHT22;8356;51.214;3.270;2023-02-28T14:06:29;230.50;2252.80
16491;DHT22;8356;51.214;3.270;2023-02-28T14:09:01;230.70;2252.80
16491;DHT22;8356;51.214;3.270;2023-02-28T14:11:40;230.70;2252.80
16491;DHT22;8356;51.214;3.270;2023-02-28T14:14:08;230.90;2252.80
16491;DHT22;8356;51.214;3.270;2023-02-28T14:19:22;230.60;2252.80
16491;DHT22;8356;51.214;3.270;2023-02-28T14:22:02;230.60;2252.80
16491;DHT22;8356;51.214;3.270;2023-02-28T14:33:25;230.70;2252.80
16491;DHT22;8356;51.214;3.270;2023-02-28T14:41:17;230.60;2252.80
16491;DHT22;8356;51.214;3.270;2023-02-28T14:43:53;230.40;2252.80
16491;DHT22;8356;51.214;3.270;2023-02-28T14:46:20;230.40;2252.80
16491;DHT22;8356;51.214;3.270;2023-02-28T14:48:48;230.60;2252.80
16491;DHT22;8356;51.214;3.270;2023-02-28T14:51:20;230.80;2252.80
16491;DHT22;8356;51.214;3.270;2023-02-28T14:53:49;230.80;2252.80
16491;DHT22;8356;51.214;3.270;2023-02-28T14:56:36;230.60;2252.80
16491;DHT22;8356;51.214;3.270;2023-02-28T14:59:03;230.50;2252.80
16491;DHT22;8356;51.214;3.270;2023-02-28T15:01:29;230.40;2252.80
16491;DHT22;8356;51.214;3.270;2023-02-28T15:04:05;230.40;2252.80
16491;DHT22;8356;51.214;3.270;2023-02-28T15:06:32;230.60;2252.80
16491;DHT22;8356;51.214;3.270;2023-02-28T15:11:38;230.90;2252.80
16491;DHT22;8356;51.214;3.270;2023-02-28T15:14:04;230.90;2252.80
16491;DHT22;8356;51.214;3.270;2023-02-28T15:16:39;230.90;2252.80
16491;DHT22;8356;51.214;3.270;2023-02-28T15:19:14;230.80;2252.80
16491;DHT22;8356;51.214;3.270;2023-02-28T15:21:44;230.80;2252.80
16491;DHT22;8356;51.214;3.270;2023-02-28T15:26:57;230.80;2252.80
16491;DHT22;8356;51.214;3.270;2023-02-28T15:29:25;230.60;2252.80
16491;DHT22;8356;51.214;3.270;2023-02-28T15:32:02;230.60;2252.80
16491;DHT22;8356;51.214;3.270;2023-02-28T15:34:40;230.90;2252.80
16491;DHT22;8356;51.214;3.270;2023-02-28T15:37:39;230.40;2252.80
16491;DHT22;8356;51.214;3.270;2023-02-28T15:42:40;230.40;2252.80
16491;DHT22;8356;51.214;3.270;2023-02-28T15:45:47;205.70;2252.80
16491;DHT22;8356;51.214;3.270;2023-02-28T15:48:21;230.80;2252.80
16491;DHT22;8356;51.214;3.270;2023-02-28T15:50:50;230.80;2252.80
16491;DHT22;8356;51.214;3.270;2023-02-28T15:53:20;231.00;2252.80
16491;DHT22;8356;51.214;3.270;2023-02-28T15:55:57;230.80;2252.80
16491;DHT22;8356;51.214;3.270;2023-02-28T15:58:24;230.80;2252.80
16491;DHT22;8356;51.214;3.270;2023-02-28T16:01:16;231.20;2252.80
16491;DHT22;8356;51.214;3.270;2023-02-28T16:03:50;230.60;2252.80
16491;DHT22;8356;51.214;3.270;2023-02-28T16:08:42;230.60;2252.80
16491;DHT22;8356;51.214;3.270;2023-02-28T16:11:11;231.00;2252.80
16491;DHT22;8356;51.214;3.270;2023-02-28T16:13:37;230.50;2252.80
16491;DHT22;8356;51.214;3.270;2023-02-28T16:16:03;205.50;2252.80
16491;DHT22;8356;51.214;3.270;2023-02-28T16:18:29;205.40;2252.80
16491;DHT22;8356;51.214;3.270;2023-02-28T16:20:54;205.40;2252.80
16491;DHT22;8356;51.214;3.270;2023-02-28T16:23:20;205.50;2252.80
16491;DHT22;8356;51.214;3.270;2023-02-28T16:25:46;205.50;2252.80
16491;DHT22;8356;51.214;3.270;2023-02-28T16:28:22;205.70;2252.80
16491;DHT22;8356;51.214;3.270;2023-02-28T16:30:51;230.40;2252.80
16491;DHT22;8356;51.214;3.270;2023-02-28T16:33:17;230.50;2252.80
16491;DHT22;8356;51.214;3.270;2023-02-28T16:35:43;205.70;2252.80
16491;DHT22;8356;51.214;3.270;2023-02-28T16:38:08;205.70;2252.80
16491;DHT22;8356;51.214;3.270;2023-02-28T16:40:36;230.60;2252.80
16491;DHT22;8356;51.214;3.270;2023-02-28T16:43:05;230.70;2252.80
16491;DHT22;8356;51.214;3.270;2023-02-28T16:45:32;230.40;2252.80
16491;DHT22;8356;51.214;3.270;2023-02-28T16:47:59;205.50;2252.80
16491;DHT22;8356;51.214;3.270;2023-02-28T16:50:29;205.70;2252.80
16491;DHT22;8356;51.214;3.270;2023-02-28T16:52:55;230.50;2252.80
16491;DHT22;8356;51.214;3.270;2023-02-28T16:55:23;230.40;2252.80
16491;DHT22;8356;51.214;3.270;2023-02-28T16:57:55;205.70;2252.80
16491;DHT22;8356;51.214;3.270;2023-02-28T17:00:21;205.70;2252.80
16491;DHT22;8356;51.214;3.270;2023-02-28T17:02:47;230.50;2252.80
16491;DHT22;8356;51.214;3.270;2023-02-28T17:05:13;205.50;2252.80
16491;DHT22;8356;51.214;3.270;2023-02-28T17:07:41;205.30;2252.80
16491;DHT22;8356;51.214;3.270;2023-02-28T17:10:15;205.40;2252.80
16491;DHT22;8356;51.214;3.270;2023-02-28T17:12:41;205.50;2252.80
16491;DHT22;8356;51.214;3.270;2023-02-28T17:15:08;205.60;2252.80
16491;DHT22;8356;51.214;3.270;2023-02-28T17:17:34;205.60;2252.80
16491;DHT22;8356;51.214;3.270;2023-02-28T17:20:00;205.30;2252.80
16491;DHT22;8356;51.214;3.270;2023-02-28T17:22:25;205.00;2252.80
16491;DHT22;8356;51.214;3.270;2023-02-28T17:24:52;204.90;2252.80
16491;DHT22;8356;51.214;3.270;2023-02-28T17:27:21;204.90;2252.80
16491;DHT22;8356;51.214;3.270;2023-02-28T17:29:47;180.10;2252.80
16491;DHT22;8356;51.214;3.270;2023-02-28T17:32:13;180.00;2252.80
16491;DHT22;8356;51.214;3.270;2023-02-28T17:34:38;180.00;2252.80
16491;DHT22;8356;51.214;3.270;2023-02-28T17:37:04;205.00;2252.80
16491;DHT22;8356;51.214;3.270;2023-02-28T17:39:30;205.30;2252.80
16491;DHT22;8356;51.214;3.270;2023-02-28T17:41:56;205.40;2252.80